Time;durP1;ratioP1;P1;durP2;ratioP2;P2;SDS_P1;SDS_P2;PMS_P1;PMS_P2;Temp;Humidity;BMP_temperature;BMP_pressure;BME280_temperature;BME280_humidity;BME280_pressure;Samples;Min_cycle;Max_cycle;Signal;HPM_P1;HPM_P2
2021/08/25 00:00:20;;;;;;;3.30;2.23;;;14.80;99.90;15.00;97263.00;;;;5105362;28;20205;-67
2021/08/25 00:03:10;;;;;;;5.93;2.57;;;14.80;99.90;14.90;97267.00;;;;5106136;28;20198;-67
2021/08/25 00:05:59;;;;;;;4.43;2.10;;;14.80;99.90;14.80;97260.00;;;;5097575;28;20272;-67
2021/08/25 00:09:12;;;;;;;3.50;2.30;;;14.80;99.90;14.90;97268.00;;;;5090057;28;20849;-67
2021/08/25 00:12:02;;;;;;;2.97;2.00;;;14.80;99.90;14.90;97269.00;;;;5103816;28;20218;-67
2021/08/25 00:14:50;;;;;;;2.17;1.90;;;14.80;99.90;14.70;97249.00;;;;5104433;28;20202;-68
2021/08/25 00:17:40;;;;;;;4.93;2.97;;;14.80;99.90;14.60;97257.00;;;;5105716;28;20226;-67
2021/08/25 00:20:30;;;;;;;2.63;2.43;;;14.80;99.90;14.10;97253.00;;;;5105747;28;20205;-68
2021/08/25 00:23:20;;;;;;;2.53;2.33;;;14.60;99.90;14.30;97248.00;;;;5096030;28;20228;-67
2021/08/25 00:26:09;;;;;;;2.43;2.23;;;14.50;99.90;14.50;97249.00;;;;5085579;28;20568;-67
2021/08/25 00:28:57;;;;;;;3.17;2.87;;;14.50;99.90;14.60;97248.00;;;;5084147;28;20203;-67
2021/08/25 00:31:47;;;;;;;2.20;1.97;;;14.50;99.90;14.80;97247.00;;;;5086235;28;20222;-67
2021/08/25 00:34:39;;;;;;;2.57;2.23;;;14.50;99.90;14.90;97248.00;;;;5103419;28;20222;-67
2021/08/25 00:37:29;;;;;;;3.87;2.30;;;14.60;99.90;14.80;97240.00;;;;5105618;28;20226;-67
2021/08/25 00:40:19;;;;;;;3.60;2.30;;;14.60;99.90;14.80;97233.00;;;;5104449;28;20199;-67
2021/08/25 00:43:10;;;;;;;5.37;2.87;;;14.60;99.90;14.80;97241.00;;;;5095178;28;20199;-67
2021/08/25 00:46:03;;;;;;;7.60;2.50;;;14.60;99.90;14.70;97233.00;;;;5077016;28;20199;-67
2021/08/25 00:48:52;;;;;;;4.03;1.97;;;14.60;99.90;14.50;97237.00;;;;5086398;28;20248;-67
2021/08/25 00:51:44;;;;;;;2.30;2.00;;;14.50;99.90;14.40;97231.00;;;;5088984;28;20219;-67
2021/08/25 00:54:35;;;;;;;2.60;2.20;;;14.50;99.90;14.50;97234.00;;;;5087712;28;20230;-68
2021/08/25 00:57:24;;;;;;;3.00;2.30;;;14.50;99.90;14.50;97238.00;;;;5088071;28;20226;-67
2021/08/25 01:00:15;;;;;;;4.57;2.30;;;14.50;99.90;14.30;97226.00;;;;5088773;28;20199;-67
2021/08/25 01:03:14;;;;;;;2.97;2.23;;;14.40;99.90;14.30;97231.00;;;;5087736;28;20211;-67
2021/08/25 01:06:04;;;;;;;5.13;2.37;;;14.30;99.90;14.40;97222.00;;;;5088659;28;20203;-67
2021/08/25 01:08:59;;;;;;;2.60;2.13;;;14.30;99.90;14.40;97214.00;;;;5089850;28;20303;-67
2021/08/25 01:11:52;;;;;;;2.20;1.83;;;14.30;99.90;14.30;97214.00;;;;5096807;28;20231;-67
2021/08/25 01:14:42;;;;;;;3.00;2.70;;;14.20;99.90;14.10;97208.00;;;;5101647;28;20198;-67
2021/08/25 01:17:31;;;;;;;3.87;2.10;;;14.10;99.90;14.20;97211.00;;;;5108048;28;20230;-67
2021/08/25 01:20:25;;;;;;;3.00;2.70;;;14.10;99.90;14.10;97207.00;;;;5108319;28;20203;-67
2021/08/25 01:23:14;;;;;;;3.87;2.30;;;14.10;99.90;14.00;97202.00;;;;5107732;28;20221;-67
2021/08/25 01:26:05;;;;;;;3.97;2.57;;;14.00;99.90;14.00;97208.00;;;;5098773;28;20861;-67
2021/08/25 01:28:58;;;;;;;3.30;2.23;;;13.90;99.90;13.90;97212.00;;;;5094973;28;20191;-67
2021/08/25 01:31:50;;;;;;;4.30;2.10;;;13.90;99.90;13.90;97213.00;;;;5087349;28;20219;-67
2021/08/25 01:34:56;;;;;;;2.73;2.47;;;13.80;99.90;13.90;97200.00;;;;5088396;28;20202;-67
2021/08/25 01:37:48;;;;;;;3.17;2.73;;;13.80;99.90;13.80;97204.00;;;;5092585;28;20226;-68
2021/08/25 01:40:37;;;;;;;3.53;2.47;;;13.80;99.90;13.70;97209.00;;;;5108300;28;20199;-66
2021/08/25 01:43:26;;;;;;;4.93;2.70;;;13.70;99.90;13.70;97201.00;;;;5108298;28;20199;-67
2021/08/25 01:46:24;;;;;;;3.57;2.60;;;13.70;99.90;13.60;97205.00;;;;5092725;28;20563;-67
2021/08/25 01:49:16;;;;;;;3.30;3.00;;;13.60;99.90;13.40;97198.00;;;;5086921;28;20196;-67
2021/08/25 01:52:06;;;;;;;2.73;2.47;;;13.50;99.90;13.30;97201.00;;;;5088390;28;20234;-67
2021/08/25 01:54:58;;;;;;;2.90;2.20;;;13.50;99.90;13.30;97195.00;;;;5088043;28;20206;-67
2021/08/25 01:57:46;;;;;;;3.43;2.57;;;13.40;99.90;13.30;97201.00;;;;5095875;28;20219;-67
2021/08/25 02:00:38;;;;;;;2.57;2.30;;;13.30;99.90;13.20;97193.00;;;;5107123;28;20202;-67
2021/08/25 02:03:27;;;;;;;5.87;2.60;;;13.20;99.90;13.20;97192.00;;;;5107636;28;20191;-67
2021/08/25 02:06:17;;;;;;;4.47;2.87;;;13.20;99.90;13.10;97192.00;;;;5107964;28;20211;-66
2021/08/25 02:09:06;;;;;;;;;;;13.10;99.90;13.10;97191.00;;;;5108788;28;20046;-67
2021/08/25 02:11:57;;;;;;;4.75;3.15;;;13.10;99.90;12.80;97185.00;;;;5090958;28;20451;-68
2021/08/25 02:14:45;;;;;;;;;;;13.10;99.90;13.00;97199.00;;;;5091128;28;20042;-67
2021/08/25 02:17:58;;;;;;;3.40;3.10;;;13.00;99.90;12.80;97190.00;;;;5086607;28;20456;-67
2021/08/25 02:20:50;;;;;;;3.47;3.17;;;12.90;99.90;12.90;97191.00;;;;5083403;28;20525;-67
2021/08/25 02:23:40;;;;;;;;;;;12.90;99.90;12.70;97187.00;;;;5097769;28;20085;-67
2021/08/25 02:26:29;;;;;;;;;;;12.80;99.90;12.70;97189.00;;;;5107769;28;19927;-67
2021/08/25 02:29:17;;;;;;;;;;;12.80;99.90;12.60;97180.00;;;;5107561;28;20430;-67
2021/08/25 02:32:07;;;;;;;4.25;2.70;;;12.70;99.90;12.30;97178.00;;;;5106735;28;20414;-67
2021/08/25 02:34:56;;;;;;;3.50;3.07;;;12.60;99.90;12.30;97186.00;;;;5108935;28;20203;-67
2021/08/25 02:37:45;;;;;;;;;;;12.60;99.90;12.10;97172.00;;;;5107515;28;20046;-67
2021/08/25 02:40:35;;;;;;;;;;;12.50;99.90;11.90;97173.00;;;;5107740;28;19924;-67
2021/08/25 02:43:23;;;;;;;;;;;12.40;99.90;11.80;97177.00;;;;5106959;28;20146;-67
2021/08/25 02:46:12;;;;;;;;;;;12.20;99.90;11.90;97183.00;;;;5107341;28;19942;-67
2021/08/25 02:49:01;;;;;;;;;;;12.10;99.90;12.00;97181.00;;;;5108291;28;20008;-67
2021/08/25 02:51:50;;;;;;;;;;;12.10;99.90;11.80;97176.00;;;;5107823;28;19919;-67
2021/08/25 02:54:38;;;;;;;;;;;12.10;99.90;11.70;97179.00;;;;5108108;28;19923;-67
2021/08/25 02:57:30;;;;;;;;;;;12.00;99.90;11.60;97176.00;;;;5106808;28;19938;-67
2021/08/25 03:00:19;;;;;;;;;;;11.90;99.90;11.60;97180.00;;;;5106289;28;19924;-67
2021/08/25 03:03:31;;;;;;;;;;;11.80;99.90;11.70;97177.00;;;;5092248;28;19959;-67
2021/08/25 03:06:22;;;;;;;;;;;11.80;99.90;11.70;97174.00;;;;5087808;28;19931;-67
2021/08/25 03:09:13;;;;;;;;;;;11.80;99.90;11.50;97176.00;;;;5086081;28;19924;-67
2021/08/25 03:12:02;;;;;;;;;;;11.70;99.90;11.50;97168.00;;;;5086666;28;19920;-67
2021/08/25 03:15:16;;;;;;;;;;;11.70;99.90;11.30;97159.00;;;;5087757;28;19920;-67
2021/08/25 03:18:28;;;;;;;;;;;11.70;99.90;11.10;97151.00;;;;5087721;28;19924;-67
2021/08/25 03:21:17;;;;;;;;;;;11.60;99.90;11.20;97156.00;;;;5081518;28;19925;-67
2021/08/25 03:24:07;;;;;;;;;;;11.40;99.90;10.90;97141.00;;;;5095264;28;20283;-66
2021/08/25 03:26:58;;;;;;;;;;;11.30;99.90;11.20;97139.00;;;;5087135;28;19924;-67
2021/08/25 03:29:47;;;;;;;;;;;11.30;99.90;11.00;97134.00;;;;5088021;28;19993;-67
2021/08/25 03:32:38;;;;;;;2.97;2.67;;;11.20;99.90;10.80;97142.00;;;;5085687;28;20022;-67
2021/08/25 03:35:27;;;;;;;5.13;3.17;;;11.10;99.90;10.70;97145.00;;;;5085416;28;20262;-67
2021/08/25 03:38:19;;;;;;;3.87;2.70;;;11.00;99.90;10.90;97142.00;;;;5083500;28;20276;-67
2021/08/25 03:41:08;;;;;;;5.17;3.10;;;11.00;99.90;10.90;97135.00;;;;5082956;28;20227;-66
2021/08/25 03:43:59;;;;;;;3.07;2.77;;;11.00;99.90;10.90;97131.00;;;;5099000;28;20199;-66
2021/08/25 03:46:48;;;;;;;4.90;3.20;;;11.00;99.90;11.10;97136.00;;;;5085714;28;20202;-66
2021/08/25 03:49:38;;;;;;;3.37;2.90;;;11.10;99.90;11.10;97137.00;;;;5087261;28;20584;-67
2021/08/25 03:52:27;;;;;;;9.03;3.33;;;11.10;99.90;11.00;97119.00;;;;5085871;28;20230;-67
2021/08/25 03:55:16;;;;;;;3.10;2.80;;;11.10;99.90;11.00;97126.00;;;;5101462;28;20218;-67
2021/08/25 03:58:05;;;;;;;5.37;3.27;;;11.10;99.90;11.20;97132.00;;;;5105583;28;20221;-67
2021/08/25 04:00:56;;;;;;;5.40;2.90;;;11.10;99.90;11.20;97140.00;;;;5094794;28;20593;-67
2021/08/25 04:03:45;;;;;;;3.20;2.77;;;11.20;99.90;11.00;97137.00;;;;5094340;28;20251;-67
2021/08/25 04:06:37;;;;;;;3.83;2.87;;;11.10;99.90;11.10;97128.00;;;;5096389;28;20202;-66
2021/08/25 04:09:27;;;;;;;3.37;3.07;;;11.10;99.90;11.10;97126.00;;;;5096713;28;20240;-66
2021/08/25 04:12:16;;;;;;;4.17;3.20;;;11.10;99.90;11.10;97133.00;;;;5105376;28;20662;-67
2021/08/25 04:15:07;;;;;;;4.13;2.70;;;11.10;99.90;10.90;97135.00;;;;5107151;28;20194;-66
2021/08/25 04:17:59;;;;;;;3.53;2.73;;;11.10;99.90;10.70;97140.00;;;;5089952;28;20437;-67
2021/08/25 04:20:48;;;;;;;3.57;3.27;;;11.00;99.90;10.70;97140.00;;;;5105934;28;20200;-66
2021/08/25 04:23:40;;;;;;;4.60;3.33;;;10.90;99.90;10.80;97145.00;;;;5107084;28;20206;-66
2021/08/25 04:26:29;;;;;;;3.27;2.97;;;10.90;99.90;10.90;97135.00;;;;5103733;28;20781;-67
2021/08/25 04:29:22;;;;;;;3.88;3.20;;;10.90;99.90;11.00;97138.00;;;;5107678;28;20376;-67
2021/08/25 04:32:11;;;;;;;3.72;3.15;;;10.90;99.90;10.60;97139.00;;;;5084778;28;20382;-66
2021/08/25 04:35:00;;;;;;;3.72;3.20;;;11.00;99.90;10.40;97131.00;;;;5088652;28;20526;-66
2021/08/25 04:37:49;;;;;;;4.35;3.95;;;10.90;99.90;10.20;97141.00;;;;5087168;28;20761;-67
2021/08/25 04:40:42;;;;;;;5.88;3.92;;;10.80;99.90;10.20;97139.00;;;;5087786;28;20434;-67
2021/08/25 04:43:31;;;;;;;5.40;3.60;;;10.70;99.90;10.30;97141.00;;;;5087166;28;20385;-66
2021/08/25 04:46:20;;;;;;;5.80;4.00;;;12.80;99.90;10.10;97136.00;;;;5085161;28;20393;-66
2021/08/25 04:49:09;;;;;;;4.53;4.05;;;10.50;99.90;10.40;97140.00;;;;5090855;28;20464;-66
2021/08/25 04:51:58;;;;;;;6.13;4.00;;;10.50;99.90;10.40;97131.00;;;;5102267;28;20523;-67
2021/08/25 04:54:47;;;;;;;4.50;3.40;;;10.60;99.90;10.20;97132.00;;;;5108681;28;20387;-66
2021/08/25 04:58:00;;;;;;;4.40;3.65;;;10.60;99.90;10.30;97126.00;;;;5089624;28;20906;-67
2021/08/25 05:00:51;;;;;;;3.90;3.60;;;10.50;99.90;10.40;97127.00;;;;5088905;28;20441;-66
2021/08/25 05:03:40;;;;;;;4.32;3.40;;;10.50;99.90;10.70;97130.00;;;;5088240;28;20446;-66
2021/08/25 05:06:29;;;;;;;6.22;3.83;;;10.60;99.90;10.60;97125.00;;;;5083204;28;20523;-67
2021/08/25 05:09:18;;;;;;;7.63;5.00;;;10.70;99.90;10.80;97125.00;;;;5105874;28;20421;-67
2021/08/25 05:12:10;;;;;;;6.60;4.53;;;10.80;99.90;10.90;97125.00;;;;5106859;28;20809;-66
2021/08/25 05:15:00;;;;;;;4.90;3.97;;;10.80;99.90;11.00;97124.00;;;;5107877;28;21093;-66
2021/08/25 05:17:51;;;;;;;4.72;3.20;;;10.90;99.90;10.80;97118.00;;;;5087271;28;20469;-67
2021/08/25 05:20:40;;;;;;;4.33;3.23;;;11.00;99.90;10.80;97119.00;;;;5100882;28;20524;-67
2021/08/25 05:23:31;;;;;;;4.97;3.25;;;11.00;99.90;10.80;97121.00;;;;5091920;28;20961;-66
2021/08/25 05:26:20;;;;;;;6.10;3.30;;;11.00;99.90;10.90;97113.00;;;;5070982;28;20941;-67
2021/08/25 05:29:32;;;;;;;4.90;3.17;;;11.10;99.90;11.20;97108.00;;;;5094323;28;20422;-66
2021/08/25 05:32:23;;;;;;;3.47;3.03;;;11.10;99.90;11.30;97122.00;;;;5099056;28;21362;-66
2021/08/25 05:35:12;;;;;;;4.57;2.97;;;11.20;99.90;11.40;97111.00;;;;5085526;28;20382;-66
2021/08/25 05:38:01;;;;;;;3.75;3.35;;;11.30;99.90;11.50;97108.00;;;;5091968;28;20921;-67
2021/08/25 05:40:50;;;;;;;3.17;2.85;;;11.40;99.90;11.70;97108.00;;;;5102688;28;20771;-67
2021/08/25 05:43:39;;;;;;;4.77;3.17;;;11.80;99.90;11.70;97101.00;;;;5106894;28;20392;-66
2021/08/25 05:46:27;;;;;;;4.03;2.78;;;11.70;99.90;12.10;97108.00;;;;5098373;28;20406;-67
2021/08/25 05:49:19;;;;;;;5.13;3.38;;;11.80;99.90;12.30;97096.00;;;;5100780;28;20376;-67
2021/08/25 05:52:08;;;;;;;4.05;3.42;;;11.90;99.90;12.60;97095.00;;;;5107390;28;20380;-67
2021/08/25 05:55:22;;;;;;;3.25;2.95;;;12.10;99.90;12.90;97090.00;;;;5107239;28;20788;-67
2021/08/25 05:58:11;;;;;;;3.80;3.17;;;12.30;99.90;13.10;97096.00;;;;5085527;28;20752;-67
2021/08/25 06:01:00;;;;;;;4.68;3.58;;;12.60;99.90;13.30;97096.00;;;;5086714;28;20742;-67
2021/08/25 06:03:50;;;;;;;5.07;3.70;;;12.80;99.90;13.50;97100.00;;;;5087716;28;20393;-66
2021/08/25 06:06:40;;;;;;;6.10;3.50;;;13.00;99.90;13.80;97101.00;;;;5086836;28;20382;-66
2021/08/25 06:09:33;;;;;;;5.50;3.33;;;13.20;99.90;14.00;97108.00;;;;5098215;28;20417;-67
2021/08/25 06:12:22;;;;;;;4.10;3.30;;;13.40;99.90;14.10;97103.00;;;;5095394;28;20871;-67
2021/08/25 06:15:11;;;;;;;3.95;3.10;;;15.50;99.90;14.30;97103.00;;;;5103402;28;20384;-66
2021/08/25 06:18:00;;;;;;;4.30;3.15;;;13.80;99.90;14.50;97112.00;;;;5106705;28;20380;-66
2021/08/25 06:20:51;;;;;;;4.63;3.80;;;14.00;99.90;14.80;97108.00;;;;5103560;28;20451;-67
2021/08/25 06:23:41;;;;;;;4.68;3.20;;;14.20;99.90;15.00;97111.00;;;;5098137;28;20464;-66
2021/08/25 06:26:31;;;;;;;4.53;3.30;;;14.40;99.90;15.10;97112.00;;;;5086739;28;20397;-67
2021/08/25 06:29:24;;;;;;;6.03;3.20;;;14.60;99.90;15.30;97120.00;;;;5085784;28;20401;-67
2021/08/25 06:32:15;;;;;;;4.43;3.58;;;14.70;99.90;15.50;97116.00;;;;5090896;28;20392;-66
2021/08/25 06:35:05;;;;;;;4.10;2.90;;;14.90;99.90;15.60;97112.00;;;;5101935;28;20457;-67
2021/08/25 06:37:54;;;;;;;3.90;3.05;;;15.10;99.90;15.80;97113.00;;;;5090761;28;20893;-67
2021/08/25 06:40:44;;;;;;;4.28;2.97;;;15.20;99.90;15.90;97113.00;;;;5086483;28;20412;-66
2021/08/25 06:43:37;;;;;;;5.23;3.10;;;15.40;99.90;15.90;97117.00;;;;5063101;28;20441;-67
2021/08/25 06:46:26;;;;;;;4.75;3.10;;;15.50;99.90;16.10;97116.00;;;;5061066;28;20447;-66
2021/08/25 06:49:15;;;;;;;3.63;2.97;;;15.60;99.90;16.10;97098.00;;;;5067069;28;20451;-67
2021/08/25 06:52:05;;;;;;;4.32;3.08;;;15.70;99.90;16.40;97108.00;;;;5062404;28;20411;-67
2021/08/25 06:54:54;;;;;;;6.63;4.38;;;15.80;99.90;16.50;97103.00;;;;5065041;28;20402;-67
2021/08/25 06:57:44;;;;;;;4.13;3.15;;;16.00;99.90;16.50;97089.00;;;;5065266;28;20409;-67
2021/08/25 07:00:33;;;;;;;6.75;3.25;;;16.10;99.90;16.70;97099.00;;;;5067499;28;20433;-66
2021/08/25 07:03:22;;;;;;;4.47;3.40;;;16.20;99.90;16.80;97092.00;;;;5066275;28;20493;-67
2021/08/25 07:06:11;;;;;;;7.15;3.35;;;16.30;99.90;16.80;97096.00;;;;5066841;28;20421;-66
2021/08/25 07:09:00;;;;;;;4.68;3.15;;;16.50;99.90;16.90;97082.00;;;;5066054;28;20400;-66
2021/08/25 07:11:49;;;;;;;5.50;3.22;;;16.60;99.90;17.10;97091.00;;;;5065483;28;20580;-67
2021/08/25 07:14:40;;;;;;;5.03;3.65;;;16.60;99.90;17.10;97097.00;;;;5062123;28;20445;-66
2021/08/25 07:17:29;;;;;;;6.25;3.92;;;16.70;99.90;17.20;97098.00;;;;5061319;28;20386;-67
2021/08/25 07:20:18;;;;;;;6.15;3.67;;;16.80;99.90;17.30;97093.00;;;;5060272;28;20423;-66
2021/08/25 07:23:31;;;;;;;6.00;3.67;;;16.90;99.90;17.50;97098.00;;;;5065811;28;20449;-66
2021/08/25 07:26:44;;;;;;;7.57;3.60;;;17.00;99.90;17.70;97097.00;;;;5063852;28;20256;-67
2021/08/25 07:29:33;;;;;;;4.80;3.57;;;17.10;99.90;17.50;97095.00;;;;5066149;28;20207;-67
2021/08/25 07:32:24;;;;;;;4.23;3.00;;;17.20;99.90;17.60;97096.00;;;;5066018;28;20957;-66
2021/08/25 07:35:36;;;;;;;6.33;3.60;;;17.20;99.80;17.10;97097.00;;;;5066721;28;20208;-67
2021/08/25 07:38:25;;;;;;;4.60;3.40;;;17.20;97.60;17.30;97095.00;;;;5067159;28;20651;-67
2021/08/25 07:41:14;;;;;;;4.70;3.37;;;17.20;98.20;17.70;97101.00;;;;5067392;28;20722;-67
2021/08/25 07:44:05;;;;;;;5.27;3.23;;;17.30;98.70;17.80;97094.00;;;;5064038;28;20207;-68
2021/08/25 07:46:55;;;;;;;6.07;3.47;;;17.40;98.30;17.50;97100.00;;;;5064152;28;20205;-67
2021/08/25 07:49:46;;;;;;;4.03;2.67;;;17.40;95.70;17.80;97095.00;;;;5064711;28;20218;-68
2021/08/25 07:52:35;;;;;;;3.87;3.00;;;17.40;96.80;17.90;97099.00;;;;5066443;28;20221;-68
2021/08/25 07:55:24;;;;;;;5.27;3.00;;;17.50;96.10;18.10;97118.00;;;;5067570;28;20335;-67
2021/08/25 07:58:14;;;;;;;4.70;3.03;;;17.60;95.40;18.30;97096.00;;;;5065286;28;20207;-67
2021/08/25 08:01:03;;;;;;;5.03;3.33;;;17.70;95.50;18.30;97098.00;;;;5068440;28;20290;-67
2021/08/25 08:03:53;;;;;;;7.10;3.83;;;17.90;95.00;18.60;97111.00;;;;5067552;28;20215;-67
2021/08/25 08:06:44;;;;;;;4.80;2.93;;;18.00;95.10;18.30;97100.00;;;;5064304;28;20211;-66
2021/08/25 08:09:33;;;;;;;3.50;3.07;;;18.00;93.40;18.20;97097.00;;;;5066547;28;20195;-67
2021/08/25 08:12:22;;;;;;;9.43;3.20;;;18.10;93.20;18.40;97097.00;;;;5064378;28;20239;-67
2021/08/25 08:15:13;;;;;;;6.23;3.10;;;18.10;92.40;18.30;97102.00;;;;5066120;28;20617;-67
2021/08/25 08:18:09;;;;;;;7.53;3.70;;;18.10;91.50;18.80;97098.00;;;;5064214;28;20199;-67
2021/08/25 08:20:58;;;;;;;4.30;3.17;;;18.20;92.50;18.00;97108.00;;;;5063464;28;20721;-67
2021/08/25 08:23:49;;;;;;;6.67;3.40;;;18.30;90.00;18.50;97099.00;;;;5065782;28;20545;-66
2021/08/25 08:26:38;;;;;;;5.10;3.27;;;18.30;91.20;18.80;97100.00;;;;5056108;28;20203;-66
2021/08/25 08:29:29;;;;;;;4.23;3.23;;;18.30;91.00;18.90;97091.00;;;;5065822;28;20264;-67
2021/08/25 08:32:18;;;;;;;3.90;3.00;;;18.50;90.60;19.00;97092.00;;;;5066293;28;20268;-67
2021/08/25 08:35:08;;;;;;;5.87;3.67;;;18.60;90.80;18.90;97089.00;;;;5064714;28;20203;-66
2021/08/25 08:38:00;;;;;;;5.30;3.33;;;18.70;89.80;19.60;97098.00;;;;5063331;28;20613;-67
2021/08/25 08:40:50;;;;;;;5.57;3.43;;;18.80;91.50;19.80;97096.00;;;;5064225;28;20223;-67
2021/08/25 08:43:44;;;;;;;6.40;3.70;;;19.00;91.20;19.90;97101.00;;;;5064796;28;20204;-67
2021/08/25 08:46:33;;;;;;;8.37;5.17;;;19.30;90.70;19.50;97087.00;;;;5066091;28;20212;-67
2021/08/25 08:49:23;;;;;;;4.93;3.13;;;19.30;88.40;19.80;97080.00;;;;5067289;28;20196;-67
2021/08/25 08:52:12;;;;;;;4.33;3.20;;;19.40;86.40;19.90;97081.00;;;;5061076;28;20227;-69
2021/08/25 08:55:01;;;;;;;5.53;2.57;;;19.50;88.70;20.20;97083.00;;;;5067613;28;20211;-68
2021/08/25 08:58:16;;;;;;;8.00;3.93;;;19.60;88.20;20.10;97075.00;;;;5064223;28;20204;-69
2021/08/25 09:01:05;;;;;;;6.73;3.13;;;19.70;85.20;20.20;97072.00;;;;5064207;28;20233;-68
2021/08/25 09:03:54;;;;;;;5.20;3.07;;;19.80;85.90;20.50;97082.00;;;;5066152;28;21010;-69
2021/08/25 09:06:45;;;;;;;4.50;3.13;;;19.90;85.60;20.50;97074.00;;;;5065181;28;20204;-70
2021/08/25 09:09:56;;;;;;;5.20;2.93;;;20.00;83.40;20.70;97065.00;;;;5063508;28;20195;-70
2021/08/25 09:12:50;;;;;;;4.77;3.53;;;20.10;84.40;20.70;97068.00;;;;5066740;28;20224;-69
2021/08/25 09:15:47;;;;;;;7.40;3.73;;;20.20;83.80;20.70;97068.00;;;;5067833;28;20212;-70
2021/08/25 09:18:37;;;;;;;4.80;3.60;;;20.30;81.90;20.70;97061.00;;;;5067512;28;20199;-69
2021/08/25 09:21:32;;;;;;;5.37;3.03;;;20.30;83.10;20.20;97051.00;;;;5070728;28;20618;-68
2021/08/25 09:24:38;;;;;;;4.57;3.37;;;20.30;77.50;21.00;97057.00;;;;5071406;28;20195;-67
2021/08/25 09:27:27;;;;;;;5.27;3.70;;;20.40;80.40;21.30;97064.00;;;;5069036;28;21003;-68
2021/08/25 09:30:16;;;;;;;6.23;3.50;;;20.60;80.50;21.50;97052.00;;;;5068401;28;20196;-67
2021/08/25 09:33:08;;;;;;;5.67;3.60;;;20.80;80.00;21.70;97044.00;;;;5067457;28;20558;-67
2021/08/25 09:36:01;;;;;;;6.10;3.73;;;20.90;79.50;22.10;97047.00;;;;5067955;28;20217;-68
2021/08/25 09:38:56;;;;;;;5.70;3.50;;;21.10;79.80;21.90;97045.00;;;;5060989;28;20290;-66
2021/08/25 09:41:57;;;;;;;7.50;3.50;;;21.40;78.30;22.00;97035.00;;;;5071244;28;20283;-67
2021/08/25 09:45:04;;;;;;;8.20;4.23;;;21.50;78.50;22.60;97036.00;;;;5065342;28;20203;-67
2021/08/25 09:47:55;;;;;;;6.20;4.00;;;21.70;78.20;22.50;97036.00;;;;5069972;28;20219;-67
2021/08/25 09:50:58;;;;;;;9.30;4.43;;;21.80;74.40;22.90;97036.00;;;;5067618;28;20204;-68
2021/08/25 09:53:49;;;;;;;5.70;4.20;;;22.10;76.20;22.90;97025.00;;;;5069005;28;20667;-68
2021/08/25 09:56:41;;;;;;;5.47;3.37;;;22.20;75.00;23.20;97035.00;;;;5065615;28;20207;-69
2021/08/25 09:59:30;;;;;;;7.27;3.93;;;22.40;74.40;23.10;97031.00;;;;5067429;28;20617;-68
2021/08/25 10:02:20;;;;;;;5.43;3.87;;;22.40;72.90;23.00;97029.00;;;;5065670;28;20299;-68
2021/08/25 10:05:11;;;;;;;7.00;4.00;;;22.50;71.20;23.30;97027.00;;;;5066465;28;20196;-69
2021/08/25 10:08:06;;;;;;;5.90;4.23;;;22.70;70.50;22.00;97012.00;;;;5068906;28;20204;-68
2021/08/25 10:10:55;;;;;;;9.97;3.83;;;22.60;65.90;22.40;97015.00;;;;5063959;28;20710;-69
2021/08/25 10:13:45;;;;;;;8.03;4.10;;;22.50;66.80;22.90;97009.00;;;;5068828;28;20200;-70
2021/08/25 10:16:40;;;;;;;5.60;3.87;;;22.40;67.70;23.50;97007.00;;;;5073979;28;20285;-68
2021/08/25 10:19:37;;;;;;;5.53;4.07;;;22.60;67.90;23.70;97003.00;;;;5086436;28;20214;-69
2021/08/25 10:22:27;;;;;;;8.50;4.70;;;22.70;67.90;23.70;96996.00;;;;5084441;28;20227;-69
2021/08/25 10:25:18;;;;;;;6.03;3.70;;;23.00;68.40;24.20;96987.00;;;;5085123;28;20572;-69
2021/08/25 10:28:09;;;;;;;6.10;4.38;;;23.10;68.10;24.30;96987.00;;;;5083567;28;20394;-70
2021/08/25 10:31:00;;;;;;;5.30;3.77;;;23.40;66.40;24.50;96996.00;;;;5082187;28;20228;-70
2021/08/25 10:34:12;;;;;;;4.83;3.10;;;23.50;67.00;23.50;96978.00;;;;5103462;28;20206;-69
2021/08/25 10:37:30;;;;;;;5.37;3.40;;;23.60;67.50;23.70;96990.00;;;;5107463;28;20198;-69
2021/08/25 10:40:33;;;;;;;6.30;3.77;;;23.50;70.40;24.00;96975.00;;;;5109244;28;20191;-69
2021/08/25 10:43:43;;;;;;;4.73;2.83;;;23.50;69.20;21.80;96965.00;;;;5107539;28;20281;-70
2021/08/25 10:46:48;;;;;;;6.20;4.23;;;23.30;64.70;20.50;96958.00;;;;5087964;28;20650;-71
2021/08/25 10:49:39;;;;;;;6.10;4.17;;;22.30;67.00;22.70;96967.00;;;;5080806;28;20209;-71
2021/08/25 10:52:32;;;;;;;7.13;5.10;;;22.20;68.80;24.00;96952.00;;;;5093106;28;20491;-69
2021/08/25 10:55:23;;;;;;;6.93;3.77;;;22.50;69.50;24.70;96963.00;;;;5087763;28;20313;-69
2021/08/25 10:58:14;;;;;;;5.40;3.37;;;23.00;70.70;24.90;96952.00;;;;5088307;28;20204;-69
2021/08/25 11:01:03;;;;;;;;;;;23.60;70.70;25.00;96946.00;;;;5087620;28;20036;-70
2021/08/25 11:03:51;;;;;;;;;;;24.00;69.90;25.30;96940.00;;;;5087691;28;19924;-70
2021/08/25 11:06:45;;;;;;;;;;;24.40;69.50;25.60;96932.00;;;;5087356;28;19920;-70
2021/08/25 11:09:37;;;;;;;5.87;3.57;;;24.70;68.50;26.00;96930.00;;;;5097061;28;20209;-70
2021/08/25 11:12:28;;;;;;;7.53;5.07;;;25.10;66.30;25.70;96926.00;;;;5106109;28;20396;-68
2021/08/25 11:15:17;;;;;;;5.72;4.40;;;25.30;64.40;26.10;96969.00;;;;5105682;28;20389;-69
2021/08/25 11:18:05;;;;;;;6.10;4.20;;;25.40;64.80;26.50;96923.00;;;;5094636;28;20770;-69
2021/08/25 11:21:06;;;;;;;7.30;4.23;;;25.50;65.10;24.70;96918.00;;;;5085885;28;20382;-70
2021/08/25 11:23:58;;;;;;;6.03;4.50;;;25.30;59.30;25.20;96914.00;;;;5084983;28;20417;-70
2021/08/25 11:26:47;;;;;;;7.78;4.68;;;25.20;63.40;26.50;96915.00;;;;5084708;28;20386;-69
2021/08/25 11:29:37;;;;;;;7.27;4.63;;;25.30;64.90;26.60;96915.00;;;;5085713;28;20386;-69
2021/08/25 11:32:36;;;;;;;6.90;4.70;;;25.60;65.00;22.90;96940.00;;;;5084987;28;20885;-71
2021/08/25 11:35:30;;;;;;;5.33;3.70;;;24.80;61.40;21.80;96947.00;;;;5086508;28;20201;-70
2021/08/25 11:38:20;;;;;;;4.43;3.17;;;23.90;62.10;24.20;96906.00;;;;5085794;28;20211;-71
2021/08/25 11:41:09;;;;;;;6.97;3.80;;;23.80;66.00;24.00;96898.00;;;;5085421;28;20224;-69
2021/08/25 11:43:57;;;;;;;5.20;4.23;;;23.90;62.30;24.70;96896.00;;;;5095289;28;20214;-70
2021/08/25 11:46:48;;;;;;;6.73;4.00;;;24.10;64.20;24.90;96909.00;;;;5086032;28;20205;-70
2021/08/25 11:49:37;;;;;;;6.60;4.20;;;24.50;61.60;25.70;96903.00;;;;5087117;28;20226;-69
2021/08/25 11:52:34;;;;;;;5.90;4.00;;;24.80;62.40;25.90;96898.00;;;;5085305;28;20231;-69
2021/08/25 11:55:24;;;;;;;7.73;3.73;;;25.10;60.80;26.80;96904.00;;;;5085881;28;20202;-70
2021/08/25 11:58:23;;;;;;;9.53;4.57;;;25.40;60.00;27.50;96906.00;;;;5085365;28;20636;-70
2021/08/25 12:01:23;;;;;;;6.30;4.17;;;26.00;61.80;25.70;96896.00;;;;5085795;28;20592;-70
2021/08/25 12:04:27;;;;;;;6.27;4.27;;;26.30;58.90;26.00;96881.00;;;;5084872;28;20339;-70
2021/08/25 12:07:17;;;;;;;6.28;4.35;;;26.50;57.30;27.20;96881.00;;;;5086471;28;20847;-69
2021/08/25 12:10:23;;;;;;;7.22;4.18;;;26.60;56.60;25.50;96879.00;;;;5102739;28;20200;-70
2021/08/25 12:13:14;;;;;;;5.35;3.85;;;26.40;56.20;27.50;96869.00;;;;5105834;28;20498;-69
2021/08/25 12:16:06;;;;;;;7.40;4.65;;;26.50;57.70;27.50;96874.00;;;;5106176;28;20698;-69
2021/08/25 12:18:59;;;;;;;6.45;4.60;;;26.80;57.60;24.80;96863.00;;;;5090962;28;20202;-70
2021/08/25 12:21:49;;;;;;;7.22;4.55;;;26.40;55.30;26.80;96861.00;;;;5085479;28;20221;-70
2021/08/25 12:24:43;;;;;;;8.30;5.75;;;26.30;56.90;27.30;96851.00;;;;5085361;28;20204;-70
2021/08/25 12:27:45;;;;;;;8.68;4.68;;;26.60;56.90;27.60;96863.00;;;;5087684;28;20258;-70
2021/08/25 12:30:47;;;;;;;5.70;4.80;;;26.90;56.50;27.80;96857.00;;;;5084987;28;20209;-70
2021/08/25 12:33:39;;;;;;;7.07;4.43;;;27.30;55.60;28.80;96859.00;;;;5084255;28;20665;-70
2021/08/25 12:36:30;;;;;;;7.82;4.40;;;27.50;55.80;29.20;96854.00;;;;5082990;28;20199;-70
2021/08/25 12:39:22;;;;;;;6.25;4.43;;;27.70;55.40;28.70;96846.00;;;;5098734;28;20194;-70
2021/08/25 12:42:12;;;;;;;6.15;4.78;;;28.00;54.60;28.20;96854.00;;;;5090639;28;20226;-70
2021/08/25 12:45:01;;;;;;;9.20;4.65;;;28.20;53.30;28.60;96849.00;;;;5092217;28;20203;-70
2021/08/25 12:47:51;;;;;;;6.70;4.97;;;28.10;53.30;29.30;96853.00;;;;5088956;28;20197;-70
2021/08/25 12:50:40;;;;;;;6.68;4.47;;;28.10;55.20;29.00;96855.00;;;;5089738;28;20474;-68